Terminal Aerodrome Forecast
Issued by NWS

Home | Current Version | Previous Version | Text Only | Print | Product List | Glossary On
Versions: 1 2 3 4 5 6 7 8 9
000
FTUS43 KICT 251120
TAFHUT
TAF
KHUT 251120Z 2512/2612 17014KT P6SM OVC200
     FM251400 18017G25KT P6SM OVC200
     FM251700 18025G35KT P6SM BKN200
     FM260000 18014KT P6SM SCT200
     FM260900 28009KT P6SM SCT200=

USA.gov is the U.S. government's official web portal to all federal, state and local government web resources and services.